Eagle Bay, New York
Current Conditions -  °F | °C
As of 2:53 PM on Wednesday 17 Dec 2014 (Local Time) from KRME Reporting Station
Light Rain Light Rain  
Wind Chill: 27°   Ceiling: 900
Heat Index: 37°   Visibility: 8mi
Dew Point: 34°   Wind: 17mph
Humidity: 89%   Direction: 280°W
Pressure: 29.86"   Gusts: NA
Location:  43.7°N, 74.99°W
Report Text: KRME 171953Z 28015KT 8SM -RA BKN009 OVC018 03/01 A2986 RMK AO2 SLP112 P0002 T00280011
Loading
Personal Weather Stations






























Interactive Weather Map New forecast layout! Learn more

10-Day Weather Forecast

Advertisements
Track Severe Weather on mobile